Portada
METAR-TAF:

METAR-TAF

Aeroports :

Saint-Denis, Reunió

latitud: 20-53S, longitud: 055-31E, altitud: 21 m

Observació

L'informe es va fer fa 24 minuts, a les 08:00 UTC
Vent 16 kt del Est/Sud-Est
Temperatura 24°C
Humitat 83%
Pressió 1017 hPa
Visibilitat 10 km o més
pluja

METAR: FMEE 180800Z AUTO 12016KT 9999 -RA SCT031/// BKN045/// BKN054/// ///CB 24/21 Q1017 TEMPO 4000 SHRA BKN020

Hora: 12:24 (08:24 UTC)

Pronòstic

L'informe es va fer fa 3 hores i 24 minuts, a les 05:00 UTC
Pronòstic vàlid del 18 a les 06 UTC al 19 a les 12 UTC
Vent 18 kt del Est
Visibilitat 10 km o més
Escasses núvols a una alçada de 2500 ft
Núvols disperses a una alçada de 5000 ft
Temporalment
l' 18 a les 06 UTC al 19 a les 06 UTC
Visibilitat: 4000 m
Cel ennuvolat a una alçada de 2000 ft
xàfecs de pluja

TAF: FMEE 180500Z 1806/1912 10018KT 9999 FEW025 SCT050 TEMPO 1806/1906 4000 SHRA BKN020

Observacions i pronòstics meteorològics de més de 4000 aeroports (METAR i TAF).

Les estacions disponibles són els punts grocs i vermells al mapa.

Posi el ratolí al punt desitjat per veure el nom de l'estació.

Feu clic per veure les observacions i els pronòstics meteorològics.

Per canviar el mapa: feu clic els botons verds amb una creu de color negre per apropar; al botó verd amb un guió per allunyar la imatge; o en les fletxes verdes per a mapes adjacents.


METAR-TAF: